Time;durP1;ratioP1;P1;durP2;ratioP2;P2;SDS_P1;SDS_P2;PMS_P1;PMS_P2;Temp;Humidity;BMP_temperature;BMP_pressure;BME280_temperature;BME280_humidity;BME280_pressure;Samples;Min_cycle;Max_cycle;Signal;HPM_P1;HPM_P2
2024/04/25 00:00:29;;;;;;;15.60;3.95;;;;;;;18.31;100.00;100267.44;10958526;27;20021;-80
2024/04/25 00:05:53;;;;;;;20.30;3.85;;;;;;;18.25;100.00;100288.94;10928762;27;20010;-80
2024/04/25 00:11:19;;;;;;;20.83;4.65;;;;;;;18.12;100.00;100272.31;10942565;27;20071;-80
2024/04/25 00:16:46;;;;;;;21.92;4.53;;;;;;;18.10;100.00;100276.81;10951171;26;20086;-80
2024/04/25 00:22:10;;;;;;;19.98;5.40;;;;;;;18.11;100.00;100278.59;10948441;27;20006;-80
2024/04/25 00:27:34;;;;;;;15.43;4.00;;;;;;;18.09;100.00;100271.50;10927875;27;19997;-80
2024/04/25 00:33:01;;;;;;;16.13;3.85;;;;;;;18.02;100.00;100269.91;10927099;27;20006;-80
2024/04/25 00:38:25;;;;;;;21.65;4.03;;;;;;;18.08;100.00;100259.94;10948746;27;20045;-79
2024/04/25 00:43:51;;;;;;;18.85;4.03;;;;;;;17.95;100.00;100254.91;10913921;27;20053;-79
2024/04/25 00:49:19;;;;;;;18.88;4.38;;;;;;;17.94;100.00;100259.38;10950137;27;20016;-80
2024/04/25 00:54:43;;;;;;;15.93;4.07;;;;;;;17.81;100.00;100260.56;10922985;27;20002;-79
2024/04/25 01:00:10;;;;;;;19.30;4.13;;;;;;;17.82;100.00;100273.88;10957180;27;20002;-80
2024/04/25 01:05:40;;;;;;;25.00;4.78;;;;;;;17.72;100.00;100260.78;10996146;26;20439;-80
2024/04/25 01:11:04;;;;;;;14.48;4.55;;;;;;;17.53;100.00;100269.13;10943391;26;20059;-80
2024/04/25 01:16:31;;;;;;;18.67;4.78;;;;;;;17.64;100.00;100257.41;10922814;26;20105;-80
2024/04/25 01:21:58;;;;;;;22.10;5.20;;;;;;;17.56;100.00;100248.63;10966512;26;20028;-79
2024/04/25 01:27:27;;;;;;;21.38;4.43;;;;;;;17.56;100.00;100256.63;10959703;27;20016;-80
2024/04/25 01:32:51;;;;;;;22.33;5.60;;;;;;;17.45;100.00;100247.09;10937376;27;20448;-80
2024/04/25 01:38:15;;;;;;;22.48;5.25;;;;;;;17.39;100.00;100241.00;10934509;27;20001;-80
2024/04/25 01:43:43;;;;;;;19.83;4.53;;;;;;;17.09;100.00;100238.00;10978937;27;20534;-79
2024/04/25 01:49:07;;;;;;;25.73;5.37;;;;;;;16.98;100.00;100236.47;10957253;27;20010;-79
2024/04/25 01:54:31;;;;;;;24.50;4.85;;;;;;;17.10;100.00;100217.56;10932286;27;20431;-80
2024/04/25 01:59:58;;;;;;;24.23;4.90;;;;;;;17.13;100.00;100261.03;10958596;27;20001;-80
2024/04/25 02:05:22;;;;;;;22.50;4.50;;;;;;;16.89;100.00;100287.28;10951545;26;20897;-80
2024/04/25 02:10:46;;;;;;;16.48;4.55;;;;;;;16.98;100.00;100271.13;10940358;27;20450;-80
2024/04/25 02:16:14;;;;;;;15.10;3.83;;;;;;;17.09;100.00;100254.00;10947559;27;20014;-80
2024/04/25 02:27:19;;;;;;;19.17;4.53;;;;;;;16.90;100.00;100251.72;10905143;27;20017;-80
2024/04/25 02:32:46;;;;;;;16.13;3.97;;;;;;;16.56;100.00;100257.59;10981596;27;20026;-79
2024/04/25 02:38:10;;;;;;;23.23;3.95;;;;;;;16.50;100.00;100265.72;10979341;27;20016;-79
2024/04/25 02:43:34;;;;;;;18.30;3.78;;;;;;;16.69;100.00;100285.84;10960404;27;20008;-80
2024/04/25 02:49:01;;;;;;;21.20;4.40;;;;;;;16.78;100.00;100289.28;10958741;27;20001;-80
2024/04/25 02:54:26;;;;;;;14.73;4.00;;;;;;;16.59;100.00;100288.66;10955342;27;20054;-80
2024/04/25 02:59:49;;;;;;;16.50;3.92;;;;;;;16.57;100.00;100286.03;10936527;27;20034;-80
2024/04/25 03:05:16;;;;;;;18.50;3.88;;;;;;;16.51;100.00;100288.78;10899290;27;20089;-80
2024/04/25 03:10:40;;;;;;;17.48;4.18;;;;;;;16.48;100.00;100277.28;10921895;27;20011;-79
2024/04/25 03:16:06;;;;;;;19.33;3.80;;;;;;;16.47;100.00;100279.09;10972738;27;20037;-79
2024/04/25 03:21:32;;;;;;;17.67;4.25;;;;;;;16.51;100.00;100288.78;10974508;27;20005;-80
2024/04/25 03:26:58;;;;;;;13.90;3.80;;;;;;;16.43;100.00;100276.50;10925417;27;20014;-80
2024/04/25 03:32:28;;;;;;;18.08;4.70;;;;;;;16.35;100.00;100268.63;10967520;27;20001;-80
2024/04/25 03:37:56;;;;;;;19.55;4.55;;;;;;;16.40;100.00;100260.56;10886242;27;20002;-80
2024/04/25 03:43:20;;;;;;;13.30;3.60;;;;;;;16.23;100.00;100280.34;10891224;27;20020;-80
2024/04/25 03:48:44;;;;;;;12.57;3.90;;;;;;;16.15;100.00;100286.69;10944602;27;20007;-80
2024/04/25 03:54:13;;;;;;;12.88;3.10;;;;;;;16.21;100.00;100284.81;10964935;27;20012;-80
2024/04/25 03:59:37;;;;;;;16.02;5.13;;;;;;;16.53;100.00;100307.44;10933756;27;20724;-81
2024/04/25 04:05:01;;;;;;;14.25;3.90;;;;;;;16.96;100.00;100312.94;10975718;27;20668;-80
2024/04/25 04:10:28;;;;;;;24.85;5.18;;;;;;;17.57;100.00;100306.44;10975730;27;20013;-79
2024/04/25 04:15:52;;;;;;;16.00;2.75;;;;;;;17.71;100.00;100313.31;10941045;27;20010;-80
2024/04/25 04:21:16;;;;;;;15.55;3.28;;;;;;;17.88;100.00;100294.25;10901725;27;20432;-80
2024/04/25 04:26:43;;;;;;;21.30;4.57;;;;;;;18.68;100.00;100295.03;10974779;27;20077;-79
2024/04/25 04:32:07;;;;;;;21.70;4.95;;;;;;;19.45;100.00;100342.06;10928859;27;20020;-80
2024/04/25 04:37:31;;;;;;;24.92;3.97;;;;;;;19.93;100.00;100330.91;10947334;27;20521;-80
2024/04/25 04:42:59;;;;;;;17.20;4.57;;;;;;;20.19;100.00;100320.28;10915060;27;20115;-80
2024/04/25 04:48:23;;;;;;;20.77;4.70;;;;;;;20.46;100.00;100305.16;10929853;27;20024;-80
2024/04/25 04:53:47;;;;;;;18.73;4.90;;;;;;;20.78;100.00;100306.78;10942170;27;20003;-80
2024/04/25 04:59:14;;;;;;;15.30;3.75;;;;;;;21.17;100.00;100310.81;10947471;27;20017;-80
2024/04/25 05:04:38;;;;;;;18.20;4.28;;;;;;;21.41;100.00;100307.25;10950518;27;20431;-81
2024/04/25 05:10:02;;;;;;;15.50;3.58;;;;;;;21.55;100.00;100304.06;10902165;27;20002;-81
2024/04/25 05:15:30;;;;;;;18.70;3.92;;;;;;;21.69;100.00;100319.69;10966074;27;20470;-81
2024/04/25 05:20:57;;;;;;;24.48;4.35;;;;;;;21.76;100.00;100319.41;10956437;26;20013;-80
2024/04/25 05:26:21;;;;;;;21.67;4.70;;;;;;;21.65;100.00;100313.56;10939452;27;20014;-81
2024/04/25 05:31:50;;;;;;;20.70;4.30;;;;;;;21.39;100.00;100327.94;10950081;27;20013;-80
2024/04/25 05:37:15;;;;;;;22.17;5.00;;;;;;;21.19;100.00;100318.84;10935117;27;20006;-80
2024/04/25 05:42:40;;;;;;;19.42;4.45;;;;;;;21.14;100.00;100321.63;10966830;27;20231;-80
2024/04/25 05:48:08;;;;;;;16.73;3.38;;;;;;;21.31;100.00;100330.00;10940232;27;20472;-80
2024/04/25 05:53:32;;;;;;;19.02;2.75;;;;;;;21.77;97.06;100341.78;10942753;27;20017;-81
2024/04/25 05:58:56;;;;;;;14.95;3.65;;;;;;;22.18;92.56;100338.44;10955347;26;20016;-80
2024/04/25 06:04:24;;;;;;;14.98;3.03;;;;;;;22.58;86.84;100347.59;10933663;27;20006;-80
2024/04/25 06:09:48;;;;;;;10.82;2.72;;;;;;;22.73;80.52;100346.13;10918961;27;20597;-80
2024/04/25 06:15:12;;;;;;;14.00;3.28;;;;;;;22.97;77.50;100361.28;10930021;27;20003;-80
2024/04/25 06:20:39;;;;;;;14.13;2.65;;;;;;;23.79;72.68;100360.41;10966400;26;20013;-81
2024/04/25 06:26:04;;;;;;;12.68;2.95;;;;;;;24.38;68.32;100365.75;10977401;27;20017;-80
2024/04/25 06:31:28;;;;;;;13.95;3.17;;;;;;;24.62;63.51;100367.25;10955028;27;20005;-81
2024/04/25 06:36:56;;;;;;;13.30;3.00;;;;;;;24.78;60.75;100355.72;10966624;27;20020;-82
2024/04/25 06:42:20;;;;;;;13.43;3.00;;;;;;;25.02;58.76;100365.31;10905596;27;20455;-82
2024/04/25 06:47:45;;;;;;;14.57;3.40;;;;;;;25.13;56.35;100352.16;10946374;27;19999;-82
2024/04/25 06:53:12;;;;;;;12.50;2.97;;;;;;;25.22;54.35;100357.09;10967513;27;20001;-82
2024/04/25 06:58:36;;;;;;;13.13;3.25;;;;;;;25.40;53.47;100353.44;10961338;27;20442;-81
2024/04/25 07:04:01;;;;;;;12.60;3.53;;;;;;;25.78;53.13;100358.69;10929568;27;20005;-83
2024/04/25 07:09:27;;;;;;;12.63;3.08;;;;;;;26.02;52.35;100360.06;10964590;27;20072;-82
2024/04/25 07:14:52;;;;;;;19.48;3.45;;;;;;;26.35;51.39;100370.03;10933483;27;20002;-82
2024/04/25 07:20:16;;;;;;;17.52;3.55;;;;;;;26.67;50.22;100384.44;11015712;26;20420;-82
2024/04/25 07:25:45;;;;;;;21.70;3.83;;;;;;;26.92;51.31;100401.94;10953331;27;20053;-79
2024/04/25 07:31:09;;;;;;;25.42;4.40;;;;;;;26.57;52.41;100398.53;10948956;27;20005;-78
2024/04/25 07:36:35;;;;;;;30.25;5.45;;;;;;;26.54;52.60;100395.09;10957625;26;20006;-79
2024/04/25 07:42:02;;;;;;;21.00;3.42;;;;;;;26.42;49.03;100383.13;10942071;27;20013;-78
2024/04/25 07:47:26;;;;;;;28.60;3.70;;;;;;;26.85;48.27;100392.38;10947589;27;20049;-79
2024/04/25 07:52:50;;;;;;;9.65;3.13;;;;;;;26.65;47.74;100389.94;10956341;27;20002;-80
2024/04/25 07:58:18;;;;;;;13.18;2.63;;;;;;;26.08;49.12;100403.03;10950731;27;19998;-79
2024/04/25 08:03:42;;;;;;;;;;;;;;;25.93;52.11;100416.53;10898593;27;20003;-80
2024/04/25 08:09:06;;;;;;;12.93;2.70;;;;;;;25.80;53.24;100427.97;10921192;27;19942;-81
2024/04/25 08:14:35;;;;;;;16.08;2.67;;;;;;;26.11;51.27;100438.06;10923847;27;20001;-80
2024/04/25 08:20:02;;;;;;;8.43;2.10;;;;;;;26.82;49.23;100446.75;10958687;26;20476;-79
2024/04/25 08:25:26;;;;;;;17.30;2.50;;;;;;;27.10;46.70;100442.50;10909359;27;20012;-79
2024/04/25 08:30:52;;;;;;;13.43;2.70;;;;;;;27.37;44.69;100449.88;10917744;27;20024;-82
2024/04/25 08:36:16;;;;;;;7.75;2.35;;;;;;;27.45;44.03;100429.59;10940287;27;20002;-81
2024/04/25 08:41:43;;;;;;;14.98;2.65;;;;;;;27.95;42.99;100418.44;10963921;27;20430;-82
2024/04/25 08:47:11;;;;;;;13.88;3.03;;;;;;;28.33;41.92;100416.94;10926760;26;20017;-81
2024/04/25 08:52:36;;;;;;;9.35;2.67;;;;;;;28.92;40.42;100420.38;10930150;27;20014;-82
2024/04/25 08:58:01;;;;;;;12.95;2.53;;;;;;;29.29;38.11;100411.50;10927244;27;20020;-83
2024/04/25 09:03:28;;;;;;;11.18;2.45;;;;;;;29.85;35.76;100414.06;10938095;27;20411;-86
2024/04/25 09:08:53;;;;;;;11.07;2.00;;;;;;;30.05;33.75;100414.44;10944050;27;20747;-89
2024/04/25 09:14:17;;;;;;;9.40;1.95;;;;;;;30.09;32.11;100406.91;10932114;27;20002;-89
2024/04/25 09:19:45;;;;;;;8.52;1.85;;;;;;;30.29;30.58;100419.97;10949296;26;20006;-86
2024/04/25 09:25:10;;;;;;;10.30;1.95;;;;;;;29.96;29.82;100419.66;10916486;27;20506;-90
2024/04/25 09:30:35;;;;;;;9.43;2.13;;;;;;;29.91;29.72;100421.78;10932730;27;20053;-86
2024/04/25 09:36:02;;;;;;;8.35;1.88;;;;;;;30.12;28.77;100414.88;10963153;27;20016;-87
2024/04/25 09:41:29;;;;;;;10.00;2.17;;;;;;;30.03;29.17;100410.06;10922990;27;20002;-86
2024/04/25 09:46:58;;;;;;;13.18;1.80;;;;;;;30.83;27.62;100400.63;10894357;27;20046;-85
2024/04/25 09:52:30;;;;;;;7.65;1.73;;;;;;;31.44;26.81;100405.03;10961734;27;20046;-87
2024/04/25 09:57:58;;;;;;;7.72;1.58;;;;;;;31.93;25.76;100404.88;10960524;27;20033;-88
2024/04/25 10:03:24;;;;;;;10.18;1.60;;;;;;;31.98;24.94;100412.69;10913479;27;20018;-87
2024/04/25 10:08:52;;;;;;;6.77;1.80;;;;;;;32.21;24.43;100387.19;10912932;27;20039;-89
2024/04/25 10:14:25;;;;;;;6.00;1.83;;;;;;;32.32;24.50;100392.66;10936218;27;20002;-89
2024/04/25 10:19:50;;;;;;;4.70;1.45;;;;;;;32.43;24.28;100395.38;10969895;26;20036;-90
2024/04/25 10:25:18;;;;;;;11.35;1.50;;;;;;;32.02;23.62;100404.16;10955441;27;20006;-87
2024/04/25 10:30:43;;;;;;;7.15;1.60;;;;;;;31.77;23.65;100406.22;10936524;27;20006;-87
2024/04/25 10:36:08;;;;;;;7.35;1.30;;;;;;;31.42;23.97;100408.91;10926488;27;20083;-86
2024/04/25 10:48:20;;;;;;;6.13;1.13;;;;;;;31.13;22.86;100397.47;10272589;28;20005;-84
2024/04/25 10:53:45;;;;;;;7.40;1.65;;;;;;;31.07;22.63;100406.09;10307159;28;20013;-84
2024/04/25 10:59:09;;;;;;;5.88;1.70;;;;;;;30.37;23.82;100413.97;10334098;28;20008;-87
2024/04/25 11:04:40;;;;;;;9.55;2.72;;;;;;;30.53;24.75;100430.97;10336417;28;20045;-87
2024/04/25 11:10:05;;;;;;;6.65;1.45;;;;;;;30.46;25.30;100435.97;10478297;27;20016;-90
2024/04/25 11:15:31;;;;;;;5.32;1.42;;;;;;;30.06;26.44;100437.94;10737705;27;20026;-87
2024/04/25 11:20:58;;;;;;;7.93;1.67;;;;;;;30.04;27.19;100453.53;10691510;27;20004;-87
2024/04/25 11:26:23;;;;;;;7.28;1.50;;;;;;;29.71;28.38;100464.00;10989116;26;20319;-84
2024/04/25 11:31:48;;;;;;;10.05;1.60;;;;;;;29.89;29.41;100462.72;10963900;27;20034;-86
2024/04/25 11:37:15;;;;;;;6.13;1.30;;;;;;;29.49;30.73;100459.16;10945422;27;20012;-86
2024/04/25 11:42:40;;;;;;;8.88;3.13;;;;;;;29.20;32.41;100469.25;10921380;27;20034;-85
2024/04/25 11:48:07;;;;;;;8.23;1.40;;;;;;;29.01;34.26;100468.72;10972269;27;20001;-86
2024/04/25 11:53:35;;;;;;;8.48;1.67;;;;;;;29.09;35.62;100465.47;10907532;27;20440;-87
2024/04/25 11:59:00;;;;;;;7.22;1.42;;;;;;;29.19;35.97;100464.78;10898028;27;20354;-90
2024/04/25 12:04:24;;;;;;;6.65;1.55;;;;;;;29.27;37.37;100465.16;10938295;27;20084;-86
2024/04/25 12:09:51;;;;;;;8.25;1.73;;;;;;;29.15;38.78;100471.38;10974049;27;20001;-87
2024/04/25 12:15:15;;;;;;;10.43;1.92;;;;;;;28.90;42.02;100471.25;10969162;27;20413;-87
2024/04/25 12:20:40;;;;;;;12.48;2.63;;;;;;;28.60;44.06;100475.91;10996752;26;20107;-87
2024/04/25 12:26:07;;;;;;;9.75;1.75;;;;;;;28.30;45.84;100454.25;10922505;27;20006;-84
2024/04/25 12:31:32;;;;;;;11.43;2.63;;;;;;;28.02;46.41;100472.25;10950462;27;20009;-84
2024/04/25 12:36:56;;;;;;;10.70;1.83;;;;;;;27.71;46.12;100472.34;10953754;27;20034;-86
2024/04/25 12:42:25;;;;;;;9.27;1.77;;;;;;;27.27;46.07;100467.69;10960736;27;20009;-84
2024/04/25 12:47:50;;;;;;;5.88;1.58;;;;;;;26.96;45.87;100479.41;10951813;27;20692;-84
2024/04/25 12:53:14;;;;;;;10.02;2.08;;;;;;;26.84;46.30;100473.78;10940399;27;20002;-84
2024/04/25 12:58:42;;;;;;;8.80;1.67;;;;;;;26.91;45.51;100467.94;10965906;27;20005;-84
2024/04/25 13:04:06;;;;;;;10.70;2.00;;;;;;;27.04;45.80;100476.28;10964264;27;20390;-84
2024/04/25 13:09:32;;;;;;;8.48;1.90;;;;;;;27.14;45.38;100465.75;10972173;26;20008;-83
2024/04/25 13:14:59;;;;;;;9.90;1.98;;;;;;;27.01;45.85;100464.72;10954942;27;20020;-85
2024/04/25 13:20:24;;;;;;;12.13;2.13;;;;;;;26.93;44.85;100475.97;11011369;26;20002;-83
2024/04/25 13:25:48;;;;;;;10.38;1.98;;;;;;;26.62;45.96;100465.09;10981835;27;20079;-84
2024/04/25 13:31:15;;;;;;;7.65;2.10;;;;;;;26.48;46.05;100460.44;10917382;27;19998;-85
2024/04/25 13:36:39;;;;;;;11.48;2.13;;;;;;;26.32;46.64;100468.50;10956029;27;20009;-85
2024/04/25 13:42:04;;;;;;;12.25;2.33;;;;;;;26.26;47.68;100468.84;10962059;27;20010;-85
2024/04/25 13:47:31;;;;;;;10.82;2.28;;;;;;;26.20;48.48;100469.13;10959546;27;20005;-86
2024/04/25 13:52:55;;;;;;;14.43;2.60;;;;;;;26.08;48.99;100470.66;10960566;27;20002;-83
2024/04/25 13:58:20;;;;;;;13.65;2.47;;;;;;;26.15;48.41;100469.38;10982585;27;20030;-83
2024/04/25 14:03:47;;;;;;;10.82;2.20;;;;;;;26.24;48.76;100465.38;10931695;27;20449;-83
2024/04/25 14:09:11;;;;;;;10.65;2.25;;;;;;;26.20;49.30;100467.31;10952882;27;20022;-85
2024/04/25 14:14:36;;;;;;;10.65;2.30;;;;;;;26.12;49.70;100484.94;10919465;27;20014;-84
2024/04/25 14:20:06;;;;;;;14.77;2.55;;;;;;;26.03;51.06;100474.59;10945338;26;20002;-84
2024/04/25 14:31:10;;;;;;;11.93;3.00;;;;;;;25.63;58.35;100498.28;10962266;27;20784;-82
2024/04/25 14:36:37;;;;;;;11.82;3.03;;;;;;;25.77;61.72;100489.47;10910536;27;20004;-83
2024/04/25 14:42:01;;;;;;;15.77;3.25;;;;;;;26.07;63.45;100495.09;10910594;27;20344;-83
2024/04/25 14:47:25;;;;;;;16.05;3.50;;;;;;;26.34;66.66;100511.75;10911176;27;20009;-82
2024/04/25 14:52:52;;;;;;;17.58;3.10;;;;;;;26.22;66.87;100513.25;10963302;27;20030;-82
2024/04/25 14:58:17;;;;;;;12.88;2.95;;;;;;;26.04;67.79;100516.94;10910196;27;20002;-82
2024/04/25 15:03:41;;;;;;;16.52;3.38;;;;;;;25.71;72.22;100519.53;10886783;27;20014;-83
2024/04/25 15:09:09;;;;;;;16.27;3.08;;;;;;;25.59;73.72;100526.44;10960672;27;20034;-83
2024/04/25 15:14:33;;;;;;;22.58;3.55;;;;;;;25.57;73.41;100527.44;10938673;27;20013;-83
2024/04/25 15:19:57;;;;;;;23.38;3.45;;;;;;;25.34;73.10;100537.53;11033424;26;20029;-82
2024/04/25 15:25:24;;;;;;;15.38;2.33;;;;;;;25.08;71.98;100524.41;10955248;26;20082;-82
2024/04/25 15:30:49;;;;;;;13.20;2.70;;;;;;;24.80;71.49;100541.03;10888717;27;20497;-83
2024/04/25 15:36:13;;;;;;;17.38;3.17;;;;;;;24.55;71.29;100533.16;10997005;26;20049;-83
2024/04/25 15:41:40;;;;;;;13.15;2.55;;;;;;;24.27;71.41;100538.09;10951342;27;20006;-81
2024/04/25 15:47:04;;;;;;;18.77;3.33;;;;;;;24.03;71.94;100539.09;10934723;27;20006;-82
2024/04/25 15:52:32;;;;;;;14.50;3.10;;;;;;;23.70;75.40;100536.91;10944944;27;20013;-81
2024/04/25 15:57:59;;;;;;;18.48;2.65;;;;;;;23.53;76.67;100544.84;10980700;27;20005;-84
2024/04/25 16:03:24;;;;;;;21.08;3.65;;;;;;;23.33;77.58;100547.41;10985061;27;20075;-85
2024/04/25 16:08:49;;;;;;;14.82;2.42;;;;;;;23.18;78.59;100550.72;10918719;27;20010;-84
2024/04/25 16:14:18;;;;;;;15.05;3.05;;;;;;;23.23;78.62;100552.31;10895588;27;20462;-82
2024/04/25 16:19:43;;;;;;;18.42;3.15;;;;;;;23.20;79.42;100560.50;10974305;26;20006;-83
2024/04/25 16:25:08;;;;;;;15.93;2.63;;;;;;;23.04;83.41;100562.91;10949924;27;20025;-80
2024/04/25 16:30:35;;;;;;;15.55;2.67;;;;;;;23.02;83.33;100562.13;10962691;27;20039;-81
2024/04/25 16:36:04;;;;;;;11.67;2.33;;;;;;;23.02;81.73;100562.13;10952013;27;20010;-80
2024/04/25 16:41:28;;;;;;;13.13;2.78;;;;;;;22.91;83.30;100567.00;10986041;27;20057;-81
2024/04/25 16:46:56;;;;;;;16.52;2.80;;;;;;;22.83;85.59;100571.84;10971066;27;20399;-81
2024/04/25 16:52:20;;;;;;;14.60;2.53;;;;;;;22.79;83.97;100572.00;10951293;27;20057;-81
2024/04/25 16:57:45;;;;;;;13.15;2.33;;;;;;;22.69;81.44;100571.44;10914167;27;20076;-82
2024/04/25 17:03:12;;;;;;;10.18;1.90;;;;;;;22.62;80.23;100575.28;10978456;27;20071;-82
2024/04/25 17:08:36;;;;;;;16.07;2.73;;;;;;;22.61;79.15;100574.41;10920238;27;20082;-82
2024/04/25 17:14:03;;;;;;;11.57;3.15;;;;;;;22.62;79.36;100591.44;10923696;27;20013;-83
2024/04/25 17:19:30;;;;;;;18.27;3.60;;;;;;;22.61;79.37;100578.91;10952185;26;20021;-82
2024/04/25 17:24:55;;;;;;;8.97;2.93;;;;;;;22.53;79.86;100594.44;10918098;27;20010;-81
2024/04/25 17:30:20;;;;;;;9.18;3.00;;;;;;;22.45;80.52;100600.09;10951357;27;20013;-81
2024/04/25 17:35:47;;;;;;;13.43;2.70;;;;;;;22.42;80.61;100613.69;10990552;27;20524;-81
2024/04/25 17:41:12;;;;;;;13.43;2.60;;;;;;;22.31;81.07;100620.38;10964664;27;20037;-86
2024/04/25 17:46:36;;;;;;;14.32;3.13;;;;;;;22.27;81.59;100633.91;10970323;27;20024;-87
2024/04/25 17:52:03;;;;;;;18.23;3.22;;;;;;;22.24;81.57;100634.03;10987219;27;20010;-87
2024/04/25 17:57:27;;;;;;;15.63;3.10;;;;;;;22.11;81.88;100650.66;10934992;27;20021;-86
2024/04/25 18:02:55;;;;;;;16.02;3.60;;;;;;;22.06;81.40;100653.47;10952590;27;20022;-83
2024/04/25 18:08:25;;;;;;;12.85;2.90;;;;;;;21.99;81.35;100654.59;10965048;27;20002;-82
2024/04/25 18:13:49;;;;;;;14.75;2.72;;;;;;;21.79;82.16;100665.13;10963108;27;20060;-82
2024/04/25 18:19:13;;;;;;;16.70;3.30;;;;;;;21.67;82.95;100682.47;11010045;26;20032;-81
2024/04/25 18:24:41;;;;;;;14.45;3.60;;;;;;;21.51;85.18;100696.44;10975589;26;20014;-79
2024/04/25 18:30:05;;;;;;;17.87;3.70;;;;;;;21.40;85.59;100697.63;10950545;27;20467;-81
2024/04/25 18:35:29;;;;;;;15.15;3.45;;;;;;;21.26;87.52;100699.88;10965169;27;20001;-81
2024/04/25 18:40:57;;;;;;;16.55;3.65;;;;;;;21.14;88.26;100707.34;10940921;27;20009;-80
2024/04/25 18:46:24;;;;;;;18.83;3.03;;;;;;;21.03;88.51;100713.03;10974489;27;20013;-80
2024/04/25 18:51:49;;;;;;;16.30;3.93;;;;;;;20.89;90.43;100720.56;10977951;26;20022;-79
2024/04/25 18:57:16;;;;;;;20.65;4.00;;;;;;;20.83;91.67;100708.22;10949304;27;20017;-79
2024/04/25 19:02:41;;;;;;;16.52;3.72;;;;;;;20.71;92.22;100710.34;10946913;26;20083;-82
2024/04/25 19:08:06;;;;;;;10.57;3.33;;;;;;;20.61;93.28;100734.72;10982832;27;20072;-81
2024/04/25 19:13:33;;;;;;;16.25;3.47;;;;;;;20.52;94.92;100726.94;10933184;27;20017;-82
2024/04/25 19:18:57;;;;;;;17.50;3.47;;;;;;;20.25;97.08;100736.50;11015060;26;20091;-83
2024/04/25 19:24:23;;;;;;;17.63;3.20;;;;;;;20.01;100.00;100734.44;10943561;27;20002;-80
2024/04/25 19:29:52;;;;;;;15.50;3.33;;;;;;;19.94;100.00;100738.19;10945370;27;20024;-80
2024/04/25 19:35:16;;;;;;;14.65;3.22;;;;;;;19.73;100.00;100760.09;10936440;27;20001;-82
2024/04/25 19:40:41;;;;;;;12.48;3.40;;;;;;;19.69;100.00;100761.94;10926649;27;20017;-82
2024/04/25 19:46:12;;;;;;;18.05;3.45;;;;;;;19.66;100.00;100770.06;10924355;27;20015;-82
2024/04/25 19:51:36;;;;;;;11.65;3.20;;;;;;;19.48;100.00;100749.03;10934516;27;20002;-83
2024/04/25 19:57:02;;;;;;;18.23;3.03;;;;;;;19.29;100.00;100739.59;10970983;27;20016;-83
2024/04/25 20:02:32;;;;;;;;;;;;;;;19.16;100.00;100756.81;10931631;27;20041;-83
2024/04/25 20:07:56;;;;;;;15.40;3.30;;;;;;;19.06;100.00;100756.06;10910835;27;19927;-82
2024/04/25 20:13:21;;;;;;;13.93;3.42;;;;;;;19.17;100.00;100761.22;10912669;27;20042;-81
2024/04/25 20:24:31;;;;;;;16.05;3.78;;;;;;;18.96;100.00;100774.13;10956122;27;20441;-81
2024/04/25 20:29:56;;;;;;;16.17;3.50;;;;;;;18.90;100.00;100766.22;10956045;27;20084;-81
2024/04/25 20:35:23;;;;;;;24.38;3.70;;;;;;;18.94;100.00;100773.25;10941726;27;20006;-82
2024/04/25 20:40:49;;;;;;;14.02;3.90;;;;;;;18.80;100.00;100780.63;10918279;27;20006;-82
2024/04/25 20:46:21;;;;;;;17.90;3.90;;;;;;;18.57;100.00;100778.38;10963071;27;20006;-81
2024/04/25 20:51:49;;;;;;;15.43;3.70;;;;;;;18.53;100.00;100789.97;10961664;27;20005;-82
2024/04/25 20:57:13;;;;;;;13.57;3.17;;;;;;;18.46;100.00;100808.81;10985257;27;20006;-79
2024/04/25 21:02:38;;;;;;;17.98;4.50;;;;;;;18.44;100.00;100799.97;10985191;27;20005;-81
2024/04/25 21:08:08;;;;;;;15.98;4.15;;;;;;;18.10;100.00;100780.88;10940512;27;20030;-81
2024/04/25 21:13:32;;;;;;;16.15;3.40;;;;;;;18.03;100.00;100793.44;10984829;27;20038;-81
2024/04/25 21:18:57;;;;;;;17.80;3.85;;;;;;;18.13;100.00;100803.09;10939303;26;20062;-81
2024/04/25 21:24:26;;;;;;;13.77;3.42;;;;;;;18.16;100.00;100797.72;10925987;27;20057;-81
2024/04/25 21:29:50;;;;;;;16.02;4.03;;;;;;;17.97;100.00;100789.97;10948559;27;20017;-81
2024/04/25 21:35:14;;;;;;;14.73;3.97;;;;;;;17.91;100.00;100790.97;10939426;27;20029;-81
2024/04/25 21:40:42;;;;;;;16.08;3.60;;;;;;;17.84;100.00;100799.97;10983091;27;20006;-81
2024/04/25 21:46:09;;;;;;;17.10;3.47;;;;;;;17.84;100.00;100799.97;10987587;27;20026;-81
2024/04/25 21:51:33;;;;;;;15.07;3.50;;;;;;;17.62;100.00;100777.09;10944504;27;20018;-81
2024/04/25 21:57:01;;;;;;;19.65;3.50;;;;;;;17.54;100.00;100779.84;10926382;27;20453;-81
2024/04/25 22:02:25;;;;;;;15.73;3.70;;;;;;;17.59;100.00;100779.78;10915145;27;20014;-81
2024/04/25 22:07:49;;;;;;;12.63;3.63;;;;;;;17.59;100.00;100764.63;10956567;27;20002;-82
2024/04/25 22:13:16;;;;;;;14.15;3.70;;;;;;;17.38;100.00;100773.81;10979348;27;20002;-82
2024/04/25 22:18:42;;;;;;;15.48;3.78;;;;;;;17.39;100.00;100793.38;10893619;26;20006;-82
2024/04/25 22:24:08;;;;;;;18.05;3.85;;;;;;;17.38;100.00;100792.50;10868105;27;20029;-82
2024/04/25 22:29:35;;;;;;;16.42;4.03;;;;;;;17.31;100.00;100782.78;10929314;27;20080;-83
2024/04/25 22:35:00;;;;;;;15.70;4.00;;;;;;;17.33;100.00;100780.09;10900589;27;20003;-82
2024/04/25 22:40:24;;;;;;;16.13;3.20;;;;;;;17.20;100.00;100779.34;10935602;27;20002;-83
2024/04/25 22:45:53;;;;;;;14.77;3.70;;;;;;;16.97;100.00;100755.59;10961473;27;20012;-83
2024/04/25 22:51:20;;;;;;;12.50;3.72;;;;;;;16.81;100.00;100761.97;10975416;27;20006;-83
2024/04/25 22:56:44;;;;;;;13.05;3.67;;;;;;;16.87;100.00;100763.72;10945053;27;20006;-82
2024/04/25 23:02:12;;;;;;;14.30;3.90;;;;;;;16.86;100.00;100752.19;10919798;27;20006;-82
2024/04/25 23:07:36;;;;;;;10.15;3.45;;;;;;;16.71;100.00;100760.31;10960223;27;20455;-83
2024/04/25 23:13:01;;;;;;;13.52;3.63;;;;;;;16.68;100.00;100769.22;10983201;27;20020;-83
2024/04/25 23:18:28;;;;;;;10.60;3.80;;;;;;;16.52;100.00;100762.25;10894652;27;20501;-85
2024/04/25 23:23:52;;;;;;;10.73;3.65;;;;;;;16.11;100.00;100767.00;10916272;27;20030;-83
2024/04/25 23:29:16;;;;;;;13.98;3.60;;;;;;;16.22;100.00;100773.13;10956740;27;20037;-85
2024/04/25 23:34:43;;;;;;;13.20;3.50;;;;;;;16.34;100.00;100754.41;10938333;27;20321;-84
2024/04/25 23:40:08;;;;;;;14.80;3.65;;;;;;;16.34;100.00;100771.25;10930436;27;20420;-84
2024/04/25 23:45:32;;;;;;;14.10;3.75;;;;;;;16.25;100.00;100763.34;10935547;27;20006;-83
2024/04/25 23:51:03;;;;;;;13.73;3.42;;;;;;;16.07;100.00;100770.59;10946716;27;20057;-83
2024/04/25 23:56:27;;;;;;;14.23;3.60;;;;;;;16.10;100.00;100767.88;10955118;27;20002;-84
